Home » Aircrafts » Embraer » Legacy 650 » Embraer Legacy 650E | Air Hamburg | D-ATOP | Landing at Cannese Mandelieu with ATC

Airport : Cannes Mandelieu Airport (CEQ/LFMD)
Aircraft : Embraer Legacy 650E
Airline : Air Hamburg
Registration : D-ATOP
Flight Number : AHO713U (AIR HAMBURG 713U)
To : Riga (RIX/EVRA)
Camera : Panasonic HC-V180
Date 20th June 2020
METAR : LFMD 201230Z AUTO 17007KT 100V190 CAVOK 23/18 Q1017 NOSIG

Add comment

Your email address will not be published. Required fields are marked *

Log In

Aircraft Sale

There are no ads matching your search criteria.

Categories